Time;durP1;ratioP1;P1;durP2;ratioP2;P2;SDS_P1;SDS_P2;PMS_P1;PMS_P2;Temp;Humidity;BMP_temperature;BMP_pressure;BME280_temperature;BME280_humidity;BME280_pressure;Samples;Min_cycle;Max_cycle;Signal;HPM_P1;HPM_P2
2023/07/17 00:00:33;;;;;;;;;;;;;;;20.36;100.00;98443.31;2619847;28;20343;-85
2023/07/17 00:02:09;;;;;;;;;;;;;;;20.26;100.00;98449.25;2619592;28;19933;-86
2023/07/17 00:03:24;;;;;;;;;;;;;;;20.21;100.00;98443.41;2619043;28;19958;-86
2023/07/17 00:04:40;;;;;;;;;;;;;;;20.38;100.00;98434.25;2619155;28;20406;-86
2023/07/17 00:05:56;;;;;;;;;;;;;;;20.33;100.00;98436.41;2619345;28;20054;-86
2023/07/17 00:07:12;;;;;;;;;;;;;;;20.35;100.00;98433.66;2619761;28;19982;-86
2023/07/17 00:08:27;;;;;;;;;;;;;;;20.15;100.00;98438.50;2619533;28;19932;-86
2023/07/17 00:09:43;;;;;;;;;;;;;;;20.11;100.00;98439.66;2619448;28;19924;-86
2023/07/17 00:10:59;;;;;;;;;;;;;;;20.15;100.00;98438.50;2619540;28;20381;-86
2023/07/17 00:12:14;;;;;;;;;;;;;;;20.38;100.00;98438.75;2619525;28;19932;-86
2023/07/17 00:13:29;;;;;;;;;;;;;;;20.32;100.00;98440.00;2619392;28;19982;-86
2023/07/17 00:14:45;;;;;;;;;;;;;;;20.37;100.00;98435.22;2619747;28;19928;-88
2023/07/17 00:16:00;;;;;;;;;;;;;;;20.39;100.00;98430.66;2619201;28;19983;-86
2023/07/17 00:17:15;;;;;;;;;;;;;;;20.32;100.00;98434.69;2619496;28;20011;-86
2023/07/17 00:18:34;;;;;;;;;;;;;;;20.23;100.00;98435.31;2618883;28;19928;-86
2023/07/17 00:19:54;;;;;;;;;;;;;;;20.38;100.00;98434.25;2619589;28;19935;-86
2023/07/17 00:21:10;;;;;;;;;;;;;;;20.36;100.00;98438.84;2618892;28;19928;-85
2023/07/17 00:22:26;;;;;;;;;;;;;;;20.42;100.00;98440.22;2619462;28;19932;-86
2023/07/17 00:23:41;;;;;;;;;;;;;;;20.29;100.00;98441.06;2618792;28;19952;-85
2023/07/17 00:24:56;;;;;;;;;;;;;;;20.29;100.00;98435.75;2619208;28;19955;-86
2023/07/17 00:26:12;;;;;;;;;;;;;;;20.31;100.00;98440.97;2619406;28;20403;-85
2023/07/17 00:27:27;;;;;;;;;;;;;;;20.15;100.00;98442.03;2619429;28;19935;-85
2023/07/17 00:28:43;;;;;;;;;;;;;;;20.24;100.00;98445.84;2619548;28;20342;-86
2023/07/17 00:29:58;;;;;;;;;;;;;;;20.28;100.00;98446.50;2619636;28;20037;-86
2023/07/17 00:31:13;;;;;;;;;;;;;;;20.20;100.00;98448.81;2618989;28;19929;-86
2023/07/17 00:32:29;;;;;;;;;;;;;;;20.32;100.00;98450.66;2619371;28;20376;-86
2023/07/17 00:33:44;;;;;;;;;;;;;;;20.32;100.00;98442.66;2619324;28;19929;-86
2023/07/17 00:34:59;;;;;;;;;;;;;;;20.16;100.00;98443.72;2619574;28;20076;-86
2023/07/17 00:36:15;;;;;;;;;;;;;;;20.16;100.00;98450.81;2619105;28;19928;-86
2023/07/17 00:37:30;;;;;;;;;;;;;;;20.16;100.00;98459.66;2619403;28;19939;-86
2023/07/17 00:38:46;;;;;;;;;;;;;;;20.08;100.00;98464.63;2619619;28;19928;-88
2023/07/17 00:40:01;;;;;;;;;;;;;;;20.02;100.00;98471.22;2619598;28;20338;-86
2023/07/17 00:41:16;;;;;;;;;;;;;;;20.06;100.00;98461.22;2619163;28;19932;-86
2023/07/17 00:42:32;;;;;;;;;;;;;;;20.08;100.00;98461.97;2619818;28;19929;-86
2023/07/17 00:43:47;;;;;;;;;;;;;;;20.06;100.00;98466.53;2619274;28;19932;-86
2023/07/17 00:45:03;;;;;;;;;;;;;;;19.98;100.00;98468.88;2619384;28;19975;-86
2023/07/17 00:46:18;;;;;;;;;;;;;;;19.80;100.00;98468.25;2618985;28;19929;-85
2023/07/17 00:47:34;;;;;;;;;;;;;;;19.98;100.00;98469.72;2619650;28;19994;-86
2023/07/17 00:48:49;;;;;;;;;;;;;;;19.98;100.00;98474.19;2619370;28;20468;-86
2023/07/17 00:50:05;;;;;;;;;;;;;;;19.89;100.00;98471.16;2618985;28;19931;-86
2023/07/17 00:51:20;;;;;;;;;;;;;;;19.76;100.00;98470.25;2619447;28;19931;-86
2023/07/17 00:52:38;;;;;;;;;;;;;;;19.80;100.00;98476.22;2619784;28;19977;-86
2023/07/17 00:53:54;;;;;;;;;;;;;;;19.78;100.00;98473.66;2621286;28;19956;-86
2023/07/17 00:55:11;;;;;;;;;;;;;;;19.67;100.00;98477.03;2621366;28;20427;-85
2023/07/17 00:56:28;;;;;;;;;;;;;;;19.60;100.00;98481.88;2621117;28;19967;-87
2023/07/17 00:57:44;;;;;;;;;;;;;;;19.46;100.00;98481.91;2621006;28;20384;-88
2023/07/17 00:58:59;;;;;;;;;;;;;;;19.57;100.00;98478.56;2620494;28;19928;-86
2023/07/17 01:00:15;;;;;;;;;;;;;;;19.59;100.00;98474.00;2620797;28;19975;-86
2023/07/17 01:01:31;;;;;;;;;;;;;;;19.55;100.00;98476.00;2621289;28;20285;-87
2023/07/17 01:02:47;;;;;;;;;;;;;;;19.53;100.00;98474.41;2621124;28;19928;-86
2023/07/17 01:04:04;;;;;;;;;;;;;;;19.48;100.00;98477.38;2621493;28;19936;-86
2023/07/17 01:05:20;;;;;;;;;;;;;;;19.50;100.00;98475.44;2620682;28;19929;-87
2023/07/17 01:06:39;;;;;;;;;;;;;;;19.46;100.00;98473.97;2620844;28;20401;-86
2023/07/17 01:07:54;;;;;;;;;;;;;;;19.41;100.00;98471.59;2621197;28;20057;-86
2023/07/17 01:09:10;;;;;;;;;;;;;;;19.32;100.00;98464.22;2621118;28;19929;-87
2023/07/17 01:10:26;;;;;;;;;;;;;;;19.32;100.00;98469.50;2621454;28;20017;-86
2023/07/17 01:11:41;;;;;;;;;;;;;;;19.27;100.00;98464.50;2620826;28;20015;-86
2023/07/17 01:12:57;;;;;;;;;;;;;;;19.25;100.00;98466.41;2621261;28;20567;-86
2023/07/17 01:14:18;;;;;;;;;;;;;;;19.36;100.00;98462.22;2620552;28;19981;-86
2023/07/17 01:15:33;;;;;;;;;;;;;;;19.29;100.00;98465.28;2621215;28;19925;-86
2023/07/17 01:16:49;;;;;;;;;;;;;;;19.34;100.00;98465.81;2620199;28;19932;-86
2023/07/17 01:18:04;;;;;;;;;;;;;;;19.33;100.00;98461.47;2620850;28;19928;-86
2023/07/17 01:19:20;;;;;;;;;;;;;;;19.46;100.00;98464.16;2620922;28;19956;-86
2023/07/17 01:20:35;;;;;;;;;;;;;;;19.47;100.00;98460.56;2621311;28;19954;-86
2023/07/17 01:22:04;;;;;;;;;;;;;;;19.25;100.00;98461.09;2620844;28;19929;-86
2023/07/17 01:23:19;;;;;;;;;;;;;;;19.30;100.00;98453.69;2620655;28;20487;-85
2023/07/17 01:24:34;;;;;;;;;;;;;;;19.24;100.00;98463.84;2621066;28;19924;-86
2023/07/17 01:25:54;;;;;;;;;;;;;;;19.06;100.00;98461.41;2619854;28;21005;-86
2023/07/17 01:27:09;;;;;;;;;;;;;;;18.86;100.00;98452.88;2620222;28;19954;-88
2023/07/17 01:28:25;;;;;;;;;;;;;;;18.87;100.00;98459.03;2620936;28;20433;-86
2023/07/17 01:29:40;;;;;;;;;;;;;;;18.91;100.00;98457.88;2620969;28;19964;-86
2023/07/17 01:30:56;;;;;;;;;;;;;;;19.06;100.00;98458.75;2621211;28;19978;-85
2023/07/17 01:32:11;;;;;;;;;;;;;;;19.08;100.00;98458.66;2621202;28;19924;-86
2023/07/17 01:33:27;;;;;;;;;;;;;;;18.87;100.00;98453.72;2620973;28;19928;-87
2023/07/17 01:34:42;;;;;;;;;;;;;;;18.83;100.00;98452.19;2620939;28;19928;-86
2023/07/17 01:35:58;;;;;;;;;;;;;;;18.78;100.00;98456.00;2620949;28;19931;-85
2023/07/17 01:37:14;;;;;;;;;;;;;;;18.83;100.00;98450.41;2621148;28;19937;-86
2023/07/17 01:38:29;;;;;;;;;;;;;;;18.84;100.00;98451.25;2620660;28;20427;-86
2023/07/17 01:39:45;;;;;;;;;;;;;;;18.77;100.00;98451.63;2620098;28;19960;-86
2023/07/17 01:41:00;;;;;;;;;;;;;;;18.67;100.00;98450.50;2619810;28;19929;-86
2023/07/17 01:42:16;;;;;;;;;;;;;;;18.64;100.00;98443.56;2620967;28;19935;-88
2023/07/17 01:43:31;;;;;;;;;;;;;;;18.59;100.00;98444.81;2619780;28;19939;-86
2023/07/17 01:44:46;;;;;;;;;;;;;;;18.68;100.00;98433.63;2620511;28;19933;-86
2023/07/17 01:46:02;;;;;;;;;;;;;;;18.69;100.00;98434.50;2620685;28;19929;-86
2023/07/17 01:47:17;;;;;;;;;;;;;;;18.75;100.00;98439.41;2621066;28;19925;-87
2023/07/17 01:48:34;;;;;;;;;;;;;;;18.81;100.00;98440.81;2620381;28;19931;-86
2023/07/17 01:49:49;;;;;;;;;;;;;;;18.82;100.00;98443.41;2620928;28;19924;-86
2023/07/17 01:51:05;;;;;;;;;;;;;;;18.97;100.00;98444.22;2621042;28;19935;-86
2023/07/17 01:52:20;;;;;;;;;;;;;;;18.96;100.00;98433.72;2620586;28;19928;-85
2023/07/17 01:53:36;;;;;;;;;;;;;;;18.94;100.00;98436.47;2620932;28;19928;-86
2023/07/17 01:54:51;;;;;;;;;;;;;;;18.84;100.00;98436.19;2620165;28;19928;-86
2023/07/17 01:56:07;;;;;;;;;;;;;;;18.82;100.00;98439.88;2620572;28;19955;-86
2023/07/17 01:57:22;;;;;;;;;;;;;;;18.84;100.00;98440.63;2620727;28;19929;-86
2023/07/17 01:58:38;;;;;;;;;;;;;;;18.97;100.00;98441.56;2620831;28;19928;-86
2023/07/17 01:59:53;;;;;;;;;;;;;;;18.94;100.00;98449.72;2620769;28;19939;-86
2023/07/17 02:01:09;;;;;;;;;;;;;;;18.95;100.00;98447.94;2621058;28;19943;-86
2023/07/17 02:02:25;;;;;;;;;;;;;;;18.98;100.00;98450.41;2620363;28;19978;-86
2023/07/17 02:03:41;;;;;;;;;;;;;;;18.99;100.00;98444.13;2620665;28;19948;-86
2023/07/17 02:04:56;;;;;;;;;;;;;;;18.91;100.00;98447.28;2620018;28;19935;-86
2023/07/17 02:06:11;;;;;;;;;;;;;;;18.83;100.00;98445.09;2620934;28;19929;-85
2023/07/17 02:07:27;;;;;;;;;;;;;;;18.86;100.00;98449.38;2619939;28;19982;-86
2023/07/17 02:08:42;;;;;;;;;;;;;;;18.99;100.00;98446.78;2620475;28;19936;-86
2023/07/17 02:09:58;;;;;;;;;;;;;;;18.91;100.00;98449.94;2620613;28;19974;-86
2023/07/17 02:11:13;;;;;;;;;;;;;;;18.76;100.00;98447.28;2620563;28;20171;-87
2023/07/17 02:12:28;;;;;;;;;;;;;;;18.79;100.00;98446.25;2620376;28;19968;-86
2023/07/17 02:13:44;;;;;;;;;;;;;;;18.74;100.00;98443.88;2619122;28;19928;-86
2023/07/17 02:14:59;;;;;;;;;;;;;;;18.84;100.00;98445.94;2619807;28;19951;-86
2023/07/17 02:16:15;;;;;;;;;;;;;;;18.96;100.00;98450.47;2620788;28;19936;-86
2023/07/17 02:17:30;;;;;;;;;;;;;;;18.97;100.00;98448.69;2620448;28;19929;-85
2023/07/17 02:18:45;;;;;;;;;;;;;;;18.90;100.00;98446.41;2620725;28;19928;-86
2023/07/17 02:20:01;;;;;;;;;;;;;;;19.02;100.00;98450.16;2620751;28;20394;-85
2023/07/17 02:21:16;;;;;;;;;;;;;;;19.03;100.00;98454.50;2620508;28;19928;-86
2023/07/17 02:22:32;;;;;;;;;;;;;;;18.97;100.00;98446.03;2620218;28;19935;-85
2023/07/17 02:23:47;;;;;;;;;;;;;;;18.88;100.00;98447.47;2620517;28;19994;-86
2023/07/17 02:25:05;;;;;;;;;;;;;;;18.86;100.00;98436.94;2620427;28;20002;-86
2023/07/17 02:26:20;;;;;;;;;;;;;;;18.77;100.00;98433.06;2620665;28;19940;-85
2023/07/17 02:27:36;;;;;;;;;;;;;;;18.88;100.00;98434.22;2620684;28;20284;-85
2023/07/17 02:28:51;;;;;;;;;;;;;;;18.99;100.00;98441.50;2620697;28;19928;-86
2023/07/17 02:30:06;;;;;;;;;;;;;;;18.97;100.00;98438.09;2620729;28;20299;-86
2023/07/17 02:31:22;;;;;;;;;;;;;;;18.97;100.00;98440.72;2620282;28;19970;-86
2023/07/17 02:32:38;;;;;;;;;;;;;;;18.93;100.00;98440.06;2620609;28;19932;-85
2023/07/17 02:33:55;;;;;;;;;;;;;;;18.89;100.00;98447.34;2620503;28;19928;-85
2023/07/17 02:35:10;;;;;;;;;;;;;;;18.88;100.00;98445.66;2620575;28;19929;-86
2023/07/17 02:36:25;;;;;;;;;;;;;;;19.04;100.00;98450.91;2620087;28;19928;-86
2023/07/17 02:37:41;;;;;;;;;;;;;;;18.87;100.00;98457.22;2620093;28;19928;-86
2023/07/17 02:38:56;;;;;;;;;;;;;;;18.81;100.00;98444.34;2620042;28;19951;-86
2023/07/17 02:40:12;;;;;;;;;;;;;;;18.73;100.00;98439.53;2620434;28;19954;-86
2023/07/17 02:41:27;;;;;;;;;;;;;;;18.66;100.00;98451.44;2620389;28;19932;-86
2023/07/17 02:42:43;;;;;;;;;;;;;;;18.71;100.00;98443.22;2620397;28;20277;-86
2023/07/17 02:43:58;;;;;;;;;;;;;;;18.71;100.00;98441.38;2620198;28;19947;-86
2023/07/17 02:45:13;;;;;;;;;;;;;;;18.61;100.00;98442.91;2620531;28;19936;-87
2023/07/17 02:46:29;;;;;;;;;;;;;;;18.71;100.00;98449.34;2620031;28;19928;-86
2023/07/17 02:47:44;;;;;;;;;;;;;;;18.66;100.00;98454.09;2620628;28;19924;-86
2023/07/17 02:48:59;;;;;;;;;;;;;;;18.70;100.00;98458.25;2620399;28;20761;-85
2023/07/17 02:50:15;;;;;;;;;;;;;;;18.66;100.00;98461.22;2620137;28;19924;-86
2023/07/17 02:51:30;;;;;;;;;;;;;;;18.61;100.00;98466.78;2620053;28;19924;-86
2023/07/17 02:52:46;;;;;;;;;;;;;;;18.64;100.00;98466.59;2620772;28;19924;-86
2023/07/17 02:54:01;;;;;;;;;;;;;;;18.69;100.00;98467.16;2620294;28;20005;-86
2023/07/17 02:55:17;;;;;;;;;;;;;;;18.71;100.00;98459.13;2619923;28;19939;-86
2023/07/17 02:56:32;;;;;;;;;;;;;;;18.54;100.00;98460.13;2619481;28;20889;-86
2023/07/17 02:57:48;;;;;;;;;;;;;;;18.58;100.00;98453.72;2619665;28;19932;-86
2023/07/17 02:59:05;;;;;;;;;;;;;;;18.54;100.00;98457.47;2619124;28;19935;-86
2023/07/17 03:00:20;;;;;;;;;;;;;;;18.55;100.00;98449.44;2619984;28;19943;-86
2023/07/17 03:01:36;;;;;;;;;;;;;;;18.57;100.00;98455.50;2619870;28;19928;-87
2023/07/17 03:02:51;;;;;;;;;;;;;;;18.75;100.00;98463.28;2620593;28;19925;-85
2023/07/17 03:04:06;;;;;;;;;;;;;;;18.83;100.00;98468.09;2620001;28;19932;-86
2023/07/17 03:05:22;;;;;;;;;;;;;;;18.86;100.00;98470.59;2620340;28;20355;-86
2023/07/17 03:06:37;;;;;;;;;;;;;;;18.75;100.00;98471.22;2619879;28;19959;-86
2023/07/17 03:07:54;;;;;;;;;;;;;;;18.81;100.00;98478.81;2620267;28;19935;-86
2023/07/17 03:09:09;;;;;;;;;;;;;;;18.91;100.00;98476.44;2620210;28;19928;-86
2023/07/17 03:10:24;;;;;;;;;;;;;;;18.98;100.00;98479.59;2620194;28;19928;-86
2023/07/17 03:11:40;;;;;;;;;;;;;;;18.96;100.00;98478.81;2619567;28;20429;-86
2023/07/17 03:12:55;;;;;;;;;;;;;;;19.05;100.00;98489.75;2619546;28;19928;-86
2023/07/17 03:14:10;;;;;;;;;;;;;;;18.96;100.00;98479.66;2619611;28;19928;-86
2023/07/17 03:15:26;;;;;;;;;;;;;;;18.80;100.00;98477.13;2619498;28;20334;-86
2023/07/17 03:16:41;;;;;;;;;;;;;;;18.53;100.00;98482.28;2619457;28;19969;-85
2023/07/17 03:17:57;;;;;;;;;;;;;;;18.54;100.00;98482.22;2619962;28;20417;-86
2023/07/17 03:19:12;;;;;;;;;;;;;;;18.69;100.00;98472.47;2619757;28;19928;-86
2023/07/17 03:20:28;;;;;;;;;;;;;;;18.66;100.00;98472.66;2619782;28;19981;-86
2023/07/17 03:21:43;;;;;;;;;;;;;;;18.82;100.00;98466.41;2620413;28;19924;-85
2023/07/17 03:22:58;;;;;;;;;;;;;;;18.87;100.00;98464.34;2619699;28;20081;-86
2023/07/17 03:24:14;;;;;;;;;;;;;;;18.76;100.00;98468.50;2619884;28;20382;-86
2023/07/17 03:25:29;;;;;;;;;;;;;;;18.59;100.00;98474.81;2619638;28;19924;-86
2023/07/17 03:26:45;;;;;;;;;;;;;;;18.58;100.00;98475.78;2619331;28;19978;-85
2023/07/17 03:28:00;;;;;;;;;;;;;;;18.61;100.00;98480.88;2619769;28;19924;-85
2023/07/17 03:29:16;;;;;;;;;;;;;;;18.58;100.00;98477.59;2618854;28;19968;-85
2023/07/17 03:30:32;;;;;;;;;;;;;;;18.61;100.00;98480.03;2619086;28;19929;-85
2023/07/17 03:31:47;;;;;;;;;;;;;;;18.62;100.00;98479.94;2620029;28;19940;-85
2023/07/17 03:33:02;;;;;;;;;;;;;;;18.70;100.00;98474.16;2619626;28;19928;-85
2023/07/17 03:34:18;;;;;;;;;;;;;;;18.67;100.00;98474.34;2619956;28;19928;-85
2023/07/17 03:35:33;;;;;;;;;;;;;;;18.78;100.00;98479.84;2619024;28;19928;-86
2023/07/17 03:36:49;;;;;;;;;;;;;;;18.96;100.00;98471.72;2619890;28;19929;-86
2023/07/17 03:38:04;;;;;;;;;;;;;;;19.15;100.00;98473.25;2619324;28;19934;-86
2023/07/17 03:39:20;;;;;;;;;;;;;;;19.20;100.00;98479.13;2619501;28;19929;-85
2023/07/17 03:40:35;;;;;;;;;;;;;;;19.10;100.00;98484.16;2619958;28;19928;-85
2023/07/17 03:41:50;;;;;;;;;;;;;;;19.22;100.00;98481.69;2619848;28;19936;-86
2023/07/17 03:43:06;;;;;;;;;;;;;;;19.20;100.00;98484.44;2619190;28;20376;-86
2023/07/17 03:44:21;;;;;;;;;;;;;;;19.08;100.00;98482.53;2619652;28;19929;-87
2023/07/17 03:45:37;;;;;;;;;;;;;;;19.15;100.00;98490.03;2619666;28;20351;-87
2023/07/17 03:46:52;;;;;;;;;;;;;;;19.20;100.00;98490.56;2619780;28;19924;-87
2023/07/17 03:48:07;;;;;;;;;;;;;;;19.25;100.00;98486.78;2619483;28;19935;-86
2023/07/17 03:49:23;;;;;;;;;;;;;;;19.27;100.00;98488.38;2619465;28;19970;-87
2023/07/17 03:50:38;;;;;;;;;;;;;;;19.25;100.00;98479.66;2619246;28;19924;-86
2023/07/17 03:51:53;;;;;;;;;;;;;;;19.26;100.00;98485.84;2619968;28;19967;-87
2023/07/17 03:53:09;;;;;;;;;;;;;;;19.30;100.00;98477.59;2619892;28;19924;-87
2023/07/17 03:54:24;;;;;;;;;;;;;;;19.26;100.00;98488.50;2619355;28;19924;-87
2023/07/17 03:55:40;;;;;;;;;;;;;;;19.28;100.00;98486.59;2619687;28;19925;-86
2023/07/17 03:56:55;;;;;;;;;;;;;;;19.30;100.00;98479.38;2618846;28;20376;-87
2023/07/17 03:58:10;;;;;;;;;;;;;;;19.27;100.00;98493.69;2618736;28;19930;-87
2023/07/17 03:59:26;;;;;;;;;;;;;;;19.40;100.00;98477.00;2619560;28;19964;-86
2023/07/17 04:00:42;;;;;;;;;;;;;;;19.26;100.00;98475.22;2619616;28;20335;-87
2023/07/17 04:01:58;;;;;;;;;;;;;;;19.21;100.00;98464.91;2619456;28;20334;-86
2023/07/17 04:03:13;;;;;;;;;;;;;;;19.23;100.00;98467.47;2619052;28;19936;-86
2023/07/17 04:04:29;;;;;;;;;;;;;;;19.02;100.00;98466.06;2619373;28;20438;-87
2023/07/17 04:05:44;;;;;;;;;;;;;;;19.11;100.00;98469.94;2619750;28;19928;-88
2023/07/17 04:07:00;;;;;;;;;;;;;;;19.05;100.00;98467.66;2619603;28;19971;-87
2023/07/17 04:08:15;;;;;;;;;;;;;;;19.10;100.00;98465.59;2619375;28;20372;-86
2023/07/17 04:09:31;;;;;;;;;;;;;;;19.05;100.00;98452.59;2619089;28;19924;-88
2023/07/17 04:10:46;;;;;;;;;;;;;;;19.04;100.00;98460.63;2619916;28;19925;-87
2023/07/17 04:12:03;;;;;;;;;;;;;;;19.02;100.00;98466.06;2619649;28;19975;-87
2023/07/17 04:13:18;;;;;;;;;;;;;;;19.11;100.00;98466.41;2619225;28;19928;-86
2023/07/17 04:14:34;;;;;;;;;;;;;;;18.77;100.00;98467.53;2618602;28;19929;-87
2023/07/17 04:15:49;;;;;;;;;;;;;;;18.98;100.00;98477.75;2619416;28;19936;-87
2023/07/17 04:17:05;;;;;;;;;;;;;;;19.05;100.00;98472.97;2619535;28;20368;-86
2023/07/17 04:18:20;;;;;;;;;;;;;;;18.89;100.00;98467.75;2619484;28;19938;-86
2023/07/17 04:19:36;;;;;;;;;;;;;;;18.98;100.00;98483.06;2619392;28;19929;-86
2023/07/17 04:20:51;;;;;;;;;;;;;;;18.80;100.00;98493.03;2619589;28;19924;-87
2023/07/17 04:22:06;;;;;;;;;;;;;;;18.71;100.00;98493.59;2619611;28;19930;-87
2023/07/17 04:23:22;;;;;;;;;;;;;;;18.86;100.00;98499.78;2619078;28;19948;-87
2023/07/17 04:24:37;;;;;;;;;;;;;;;18.76;100.00;98508.28;2619663;28;20873;-86
2023/07/17 04:25:53;;;;;;;;;;;;;;;18.77;100.00;98515.28;2619551;28;19931;-86
2023/07/17 04:27:08;;;;;;;;;;;;;;;18.73;100.00;98529.69;2619066;28;19933;-86
2023/07/17 04:28:23;;;;;;;;;;;;;;;18.83;100.00;98519.38;2618923;28;19925;-85
2023/07/17 04:29:39;;;;;;;;;;;;;;;18.87;100.00;98512.09;2619017;28;19932;-87
2023/07/17 04:30:54;;;;;;;;;;;;;;;19.05;100.00;98505.66;2619384;28;19930;-87
2023/07/17 04:32:09;;;;;;;;;;;;;;;18.96;100.00;98500.88;2619089;28;19987;-87
2023/07/17 04:33:26;;;;;;;;;;;;;;;18.89;100.00;98492.47;2619667;28;19956;-86
2023/07/17 04:34:41;;;;;;;;;;;;;;;18.88;100.00;98493.41;2619053;28;19933;-87
2023/07/17 04:35:57;;;;;;;;;;;;;;;19.07;100.00;98492.31;2619088;28;19932;-86
2023/07/17 04:37:12;;;;;;;;;;;;;;;19.09;100.00;98486.91;2619027;28;19938;-86
2023/07/17 04:38:27;;;;;;;;;;;;;;;19.05;100.00;98495.06;2618481;28;19932;-88
2023/07/17 04:39:43;;;;;;;;;;;;;;;19.11;100.00;98487.66;2619143;28;19986;-87
2023/07/17 04:40:58;;;;;;;;;;;;;;;19.23;100.00;98497.50;2619218;28;19929;-86
2023/07/17 04:42:14;;;;;;;;;;;;;;;19.26;100.00;98494.63;2619292;28;19928;-89
2023/07/17 04:43:29;;;;;;;;;;;;;;;19.23;100.00;98488.69;2619199;28;20464;-86
2023/07/17 04:44:45;;;;;;;;;;;;;;;19.29;100.00;98489.16;2619795;28;19935;-86
2023/07/17 04:46:00;;;;;;;;;;;;;;;19.27;100.00;98488.38;2619045;28;19980;-86
2023/07/17 04:47:15;;;;;;;;;;;;;;;19.30;100.00;98496.19;2619290;28;19935;-86
2023/07/17 04:48:31;;;;;;;;;;;;;;;19.09;100.00;98492.19;2619051;28;20054;-87
2023/07/17 04:49:46;;;;;;;;;;;;;;;19.31;100.00;98494.34;2619533;28;20445;-88
2023/07/17 04:51:02;;;;;;;;;;;;;;;19.29;100.00;98490.94;2619280;28;19924;-86
2023/07/17 04:52:17;;;;;;;;;;;;;;;19.22;100.00;98484.34;2619348;28;19935;-86
2023/07/17 04:53:33;;;;;;;;;;;;;;;19.35;100.00;98479.97;2619254;28;19924;-86
2023/07/17 04:54:49;;;;;;;;;;;;;;;19.27;100.00;98475.13;2619282;28;19936;-86
2023/07/17 04:56:04;;;;;;;;;;;;;;;19.31;100.00;98463.38;2618796;28;19972;-87
2023/07/17 04:57:21;;;;;;;;;;;;;;;19.39;100.00;98468.19;2618911;28;19935;-87
2023/07/17 04:58:36;;;;;;;;;;;;;;;19.50;100.00;98472.78;2619102;28;19928;-86
2023/07/17 04:59:51;;;;;;;;;;;;;;;19.38;100.00;98474.44;2619036;28;19929;-86
2023/07/17 05:01:07;;;;;;;;;;;;;;;19.36;100.00;98475.50;2618745;28;20391;-86
2023/07/17 05:02:22;;;;;;;;;;;;;;;19.49;100.00;98484.38;2619350;28;19925;-87
2023/07/17 05:03:38;;;;;;;;;;;;;;;19.11;100.00;98477.91;2619004;28;20357;-86
2023/07/17 05:04:53;;;;;;;;;;;;;;;19.25;100.00;98481.50;2619518;28;19924;-86
2023/07/17 05:06:09;;;;;;;;;;;;;;;19.08;100.00;98475.44;2618907;28;19995;-86
2023/07/17 05:07:24;;;;;;;;;;;;;;;19.33;100.00;98479.19;2618941;28;20011;-86
2023/07/17 05:08:40;;;;;;;;;;;;;;;19.45;100.00;98480.22;2618304;28;19928;-86
2023/07/17 05:09:55;;;;;;;;;;;;;;;19.50;100.00;98478.09;2619167;28;20497;-86
2023/07/17 05:11:11;;;;;;;;;;;;;;;19.44;100.00;98483.81;2619026;28;19935;-85
2023/07/17 05:12:27;;;;;;;;;;;;;;;19.66;100.00;98477.13;2618112;28;19928;-85
2023/07/17 05:13:43;;;;;;;;;;;;;;;19.81;100.00;98483.25;2619184;28;19928;-87
2023/07/17 05:14:58;;;;;;;;;;;;;;;19.61;100.00;98483.59;2619446;28;20016;-87
2023/07/17 05:16:13;;;;;;;;;;;;;;;19.79;100.00;98486.00;2618951;28;20264;-86
2023/07/17 05:17:29;;;;;;;;;;;;;;;19.94;100.00;98489.50;2619145;28;19959;-86
2023/07/17 05:18:44;;;;;;;;;;;;;;;19.96;100.00;98498.19;2619036;28;19932;-87
2023/07/17 05:20:00;;;;;;;;;;;;;;;20.03;100.00;98501.31;2619019;28;19952;-87
2023/07/17 05:21:15;;;;;;;;;;;;;;;19.93;100.00;98506.38;2619380;28;19924;-86
2023/07/17 05:22:31;;;;;;;;;;;;;;;19.94;100.00;98516.06;2619183;28;19931;-86
2023/07/17 05:23:46;;;;;;;;;;;;;;;19.96;100.00;98506.19;2619113;28;19974;-86
2023/07/17 05:25:02;;;;;;;;;;;;;;;20.09;100.00;98508.03;2619235;28;20521;-85
2023/07/17 05:26:17;;;;;;;;;;;;;;;19.95;100.00;98508.91;2618858;28;19932;-85
2023/07/17 05:27:33;;;;;;;;;;;;;;;20.06;100.00;98501.09;2618592;28;19935;-85
2023/07/17 05:28:49;;;;;;;;;;;;;;;20.09;100.00;98508.03;2619458;28;19932;-86
2023/07/17 05:30:04;;;;;;;;;;;;;;;20.03;100.00;98510.13;2617942;28;19936;-85
2023/07/17 05:31:21;;;;;;;;;;;;;;;20.13;100.00;98504.19;2618533;28;20023;-85
2023/07/17 05:32:36;;;;;;;;;;;;;;;20.16;100.00;98514.63;2618162;28;19928;-85
2023/07/17 05:33:52;;;;;;;;;;;;;;;20.14;100.00;98508.56;2618699;28;19925;-87
2023/07/17 05:35:08;;;;;;;;;;;;;;;20.31;100.00;98523.41;2618173;28;21016;-86
2023/07/17 05:36:23;;;;;;;;;;;;;;;20.20;100.00;98515.28;2617772;28;19928;-86
2023/07/17 05:37:39;;;;;;;;;;;;;;;20.39;100.00;98521.06;2617731;28;19928;-86
2023/07/17 05:38:54;;;;;;;;;;;;;;;20.26;100.00;98520.19;2619335;28;19935;-86
2023/07/17 05:40:10;;;;;;;;;;;;;;;20.23;100.00;98529.22;2619722;28;19932;-87
2023/07/17 05:41:26;;;;;;;;;;;;;;;20.02;100.00;98524.34;2620251;28;19928;-86
2023/07/17 05:42:42;;;;;;;;;;;;;;;20.11;100.00;98536.19;2620389;28;20033;-86
2023/07/17 05:43:57;;;;;;;;;;;;;;;20.31;100.00;98531.38;2619845;28;20523;-86
2023/07/17 05:45:13;;;;;;;;;;;;;;;20.36;100.00;98526.59;2620303;28;20384;-85
2023/07/17 05:46:28;;;;;;;;;;;;;;;20.45;100.00;98525.97;2619873;28;19933;-85
2023/07/17 05:47:44;;;;;;;;;;;;;;;20.41;100.00;98532.47;2619474;28;19971;-86
2023/07/17 05:48:59;;;;;;;;;;;;;;;20.49;100.00;98536.41;2619629;28;19935;-86
2023/07/17 05:50:14;;;;;;;;;;;;;;;20.64;100.00;98537.19;2620015;28;19985;-87
2023/07/17 05:51:31;;;;;;;;;;;;;;;20.62;100.00;98536.44;2619802;28;20575;-87
2023/07/17 05:52:46;;;;;;;;;;;;;;;20.55;100.00;98536.84;2618800;28;19933;-86
2023/07/17 05:54:01;;;;;;;;;;;;;;;20.66;100.00;98530.78;2619617;28;19930;-86
2023/07/17 05:55:17;;;;;;;;;;;;;;;20.79;100.00;98521.94;2619640;28;19974;-85
2023/07/17 05:56:32;;;;;;;;;;;;;;;20.87;100.00;98522.31;2619274;28;19924;-85
2023/07/17 05:57:48;;;;;;;;;;;;;;;21.00;100.00;98520.50;2618976;28;19975;-86
2023/07/17 05:59:03;;;;;;;;;;;;;;;21.11;100.00;98518.91;2619494;28;20384;-87
2023/07/17 06:00:19;;;;;;;;;;;;;;;21.10;100.00;98518.03;2620528;28;19924;-86
2023/07/17 06:01:34;;;;;;;;;;;;;;;21.25;100.00;98529.44;2619484;28;19924;-86
2023/07/17 06:02:50;;;;;;;;;;;;;;;21.17;100.00;98521.13;2618763;28;19924;-87
2023/07/17 06:04:06;;;;;;;;;;;;;;;21.23;100.00;98519.84;2619345;28;20567;-86
2023/07/17 06:05:22;;;;;;;;;;;;;;;21.24;100.00;98522.41;2619123;28;20023;-87
2023/07/17 06:06:37;;;;;;;;;;;;;;;21.33;100.00;98520.03;2619701;28;19993;-86
2023/07/17 06:07:52;;;;;;;;;;;;;;;21.33;100.00;98517.38;2619712;28;20352;-86
2023/07/17 06:09:08;;;;;;;;;;;;;;;21.40;100.00;98526.63;2619518;28;19975;-86
2023/07/17 06:10:23;;;;;;;;;;;;;;;21.30;100.00;98521.09;2619648;28;20363;-86
2023/07/17 06:11:38;;;;;;;;;;;;;;;21.52;100.00;98517.75;2619623;28;19935;-85
2023/07/17 06:12:54;;;;;;;;;;;;;;;21.44;100.00;98514.78;2620440;28;20017;-85
2023/07/17 06:14:09;;;;;;;;;;;;;;;21.48;100.00;98518.09;2619072;28;19928;-85
2023/07/17 06:15:25;;;;;;;;;;;;;;;21.65;100.00;98520.38;2619261;28;19935;-84
2023/07/17 06:16:40;;;;;;;;;;;;;;;21.71;100.00;98525.28;2618572;28;19932;-84
2023/07/17 06:17:56;;;;;;;;;;;;;;;21.68;100.00;98522.00;2618281;28;20312;-86
2023/07/17 06:19:12;;;;;;;;;;;;;;;21.70;100.00;98525.41;2618929;28;20437;-85
2023/07/17 06:20:27;;;;;;;;;;;;;;;21.62;100.00;98522.41;2619235;28;19928;-85
2023/07/17 06:21:42;;;;;;;;;;;;;;;21.86;100.00;98519.78;2619399;28;20479;-86
2023/07/17 06:22:58;;;;;;;;;;;;;;;21.62;100.00;98519.75;2618773;28;19929;-85
2023/07/17 06:24:13;;;;;;;;;;;;;;;21.93;100.00;98515.72;2619875;28;19928;-84
2023/07/17 06:25:31;;;;;;;;;;;;;;;22.22;100.00;98511.84;2619068;28;20429;-85
2023/07/17 06:26:50;;;;;;;;;;;;;;;22.19;100.00;98512.94;2619708;28;20560;-85
2023/07/17 06:28:05;;;;;;;;;;;;;;;22.45;100.00;98526.13;2619554;28;20010;-84